sensor_id;sensor_type;location;lat;lon;timestamp;temperature;humidity
3713;DHT22;1872;51.406;6.856;2023-07-16T00:02:07;18.90;99.90
3713;DHT22;1872;51.406;6.856;2023-07-16T00:04:33;18.90;99.90
3713;DHT22;1872;51.406;6.856;2023-07-16T00:07:01;18.90;99.90
3713;DHT22;1872;51.406;6.856;2023-07-16T00:09:28;19.00;99.90
3713;DHT22;1872;51.406;6.856;2023-07-16T00:11:53;18.90;99.90
3713;DHT22;1872;51.406;6.856;2023-07-16T00:14:19;18.90;99.90
3713;DHT22;1872;51.406;6.856;2023-07-16T00:16:45;18.90;99.90
3713;DHT22;1872;51.406;6.856;2023-07-16T00:19:11;18.90;99.90
3713;DHT22;1872;51.406;6.856;2023-07-16T00:21:37;18.80;99.90
3713;DHT22;1872;51.406;6.856;2023-07-16T00:24:04;18.80;99.90
3713;DHT22;1872;51.406;6.856;2023-07-16T00:26:30;18.80;99.90
3713;DHT22;1872;51.406;6.856;2023-07-16T00:28:55;18.80;99.90
3713;DHT22;1872;51.406;6.856;2023-07-16T00:31:21;18.80;99.90
3713;DHT22;1872;51.406;6.856;2023-07-16T00:33:47;18.90;99.90
3713;DHT22;1872;51.406;6.856;2023-07-16T00:36:12;18.80;99.90
3713;DHT22;1872;51.406;6.856;2023-07-16T00:38:38;18.80;99.90
3713;DHT22;1872;51.406;6.856;2023-07-16T00:41:05;18.80;99.90
3713;DHT22;1872;51.406;6.856;2023-07-16T00:43:31;18.70;99.90
3713;DHT22;1872;51.406;6.856;2023-07-16T00:45:57;18.70;99.90
3713;DHT22;1872;51.406;6.856;2023-07-16T00:48:23;18.70;99.90
3713;DHT22;1872;51.406;6.856;2023-07-16T00:50:50;18.70;99.90
3713;DHT22;1872;51.406;6.856;2023-07-16T00:53:17;18.60;99.90
3713;DHT22;1872;51.406;6.856;2023-07-16T00:55:43;18.60;99.90
3713;DHT22;1872;51.406;6.856;2023-07-16T00:58:09;18.60;99.90
3713;DHT22;1872;51.406;6.856;2023-07-16T01:00:36;18.50;99.90
3713;DHT22;1872;51.406;6.856;2023-07-16T01:03:07;18.50;99.90
3713;DHT22;1872;51.406;6.856;2023-07-16T01:05:53;18.40;99.90
3713;DHT22;1872;51.406;6.856;2023-07-16T01:09:01;18.40;99.90
3713;DHT22;1872;51.406;6.856;2023-07-16T01:11:19;18.30;99.90
3713;DHT22;1872;51.406;6.856;2023-07-16T01:13:45;18.30;99.90
3713;DHT22;1872;51.406;6.856;2023-07-16T01:16:21;18.30;99.90
3713;DHT22;1872;51.406;6.856;2023-07-16T01:18:47;18.30;99.90
3713;DHT22;1872;51.406;6.856;2023-07-16T01:21:13;18.30;99.90
3713;DHT22;1872;51.406;6.856;2023-07-16T01:31:40;18.20;99.90
3713;DHT22;1872;51.406;6.856;2023-07-16T01:34:06;18.20;99.90
3713;DHT22;1872;51.406;6.856;2023-07-16T01:36:34;18.20;99.90
3713;DHT22;1872;51.406;6.856;2023-07-16T01:39:01;18.10;99.90
3713;DHT22;1872;51.406;6.856;2023-07-16T01:41:27;18.10;99.90
3713;DHT22;1872;51.406;6.856;2023-07-16T01:43:52;18.10;99.90
3713;DHT22;1872;51.406;6.856;2023-07-16T01:46:18;18.10;99.90
3713;DHT22;1872;51.406;6.856;2023-07-16T01:48:44;18.10;99.90
3713;DHT22;1872;51.406;6.856;2023-07-16T01:51:10;18.00;99.90
3713;DHT22;1872;51.406;6.856;2023-07-16T01:53:39;18.00;99.90
3713;DHT22;1872;51.406;6.856;2023-07-16T01:56:05;18.00;99.90
3713;DHT22;1872;51.406;6.856;2023-07-16T01:58:31;18.10;99.90
3713;DHT22;1872;51.406;6.856;2023-07-16T02:00:57;18.10;99.90
3713;DHT22;1872;51.406;6.856;2023-07-16T02:03:23;18.10;99.90
3713;DHT22;1872;51.406;6.856;2023-07-16T02:05:48;18.20;99.90
3713;DHT22;1872;51.406;6.856;2023-07-16T02:08:14;18.20;99.90
3713;DHT22;1872;51.406;6.856;2023-07-16T02:10:40;18.20;99.90
3713;DHT22;1872;51.406;6.856;2023-07-16T02:13:05;18.20;99.90
3713;DHT22;1872;51.406;6.856;2023-07-16T02:15:31;18.20;99.90
3713;DHT22;1872;51.406;6.856;2023-07-16T02:17:56;18.30;99.90
3713;DHT22;1872;51.406;6.856;2023-07-16T02:20:22;18.30;99.90
3713;DHT22;1872;51.406;6.856;2023-07-16T02:22:48;18.30;99.90
3713;DHT22;1872;51.406;6.856;2023-07-16T02:25:16;18.20;99.90
3713;DHT22;1872;51.406;6.856;2023-07-16T02:27:41;18.20;99.90
3713;DHT22;1872;51.406;6.856;2023-07-16T02:30:07;18.20;99.90
3713;DHT22;1872;51.406;6.856;2023-07-16T02:32:33;18.10;99.90
3713;DHT22;1872;51.406;6.856;2023-07-16T02:35:01;18.10;99.90
3713;DHT22;1872;51.406;6.856;2023-07-16T02:37:27;18.10;99.90
3713;DHT22;1872;51.406;6.856;2023-07-16T02:39:52;18.10;99.90
3713;DHT22;1872;51.406;6.856;2023-07-16T02:42:18;18.10;99.90
3713;DHT22;1872;51.406;6.856;2023-07-16T02:44:43;18.10;99.90
3713;DHT22;1872;51.406;6.856;2023-07-16T02:47:11;18.20;99.90
3713;DHT22;1872;51.406;6.856;2023-07-16T02:49:37;18.20;99.90
3713;DHT22;1872;51.406;6.856;2023-07-16T02:52:03;18.20;99.90
3713;DHT22;1872;51.406;6.856;2023-07-16T02:54:29;18.10;99.90
3713;DHT22;1872;51.406;6.856;2023-07-16T02:56:54;18.10;99.90
3713;DHT22;1872;51.406;6.856;2023-07-16T02:59:20;18.10;99.90
3713;DHT22;1872;51.406;6.856;2023-07-16T03:01:46;18.00;99.90
3713;DHT22;1872;51.406;6.856;2023-07-16T03:04:11;18.00;99.90
3713;DHT22;1872;51.406;6.856;2023-07-16T03:06:37;18.00;99.90
3713;DHT22;1872;51.406;6.856;2023-07-16T03:09:03;17.90;99.90
3713;DHT22;1872;51.406;6.856;2023-07-16T03:11:29;17.90;99.90
3713;DHT22;1872;51.406;6.856;2023-07-16T03:13:54;17.90;99.90
3713;DHT22;1872;51.406;6.856;2023-07-16T03:16:20;17.90;99.90
3713;DHT22;1872;51.406;6.856;2023-07-16T03:18:46;17.80;99.90
3713;DHT22;1872;51.406;6.856;2023-07-16T03:21:12;17.80;99.90
3713;DHT22;1872;51.406;6.856;2023-07-16T03:23:37;17.70;99.90
3713;DHT22;1872;51.406;6.856;2023-07-16T03:26:03;17.70;99.90
3713;DHT22;1872;51.406;6.856;2023-07-16T03:28:29;17.60;99.90
3713;DHT22;1872;51.406;6.856;2023-07-16T03:30:54;17.60;99.90
3713;DHT22;1872;51.406;6.856;2023-07-16T03:33:20;17.60;99.90
3713;DHT22;1872;51.406;6.856;2023-07-16T03:35:48;17.60;99.90
3713;DHT22;1872;51.406;6.856;2023-07-16T03:38:14;17.50;99.90
3713;DHT22;1872;51.406;6.856;2023-07-16T03:40:45;17.50;99.90
3713;DHT22;1872;51.406;6.856;2023-07-16T03:43:12;17.40;99.90
3713;DHT22;1872;51.406;6.856;2023-07-16T03:45:38;17.40;99.90
3713;DHT22;1872;51.406;6.856;2023-07-16T03:48:04;17.40;99.90
3713;DHT22;1872;51.406;6.856;2023-07-16T03:50:29;17.40;99.90
3713;DHT22;1872;51.406;6.856;2023-07-16T03:52:55;17.30;99.90
3713;DHT22;1872;51.406;6.856;2023-07-16T03:55:21;17.30;99.90
3713;DHT22;1872;51.406;6.856;2023-07-16T03:57:46;17.30;99.90
3713;DHT22;1872;51.406;6.856;2023-07-16T04:00:12;17.30;99.90
3713;DHT22;1872;51.406;6.856;2023-07-16T04:02:38;17.30;99.90
3713;DHT22;1872;51.406;6.856;2023-07-16T04:05:04;17.30;99.90
3713;DHT22;1872;51.406;6.856;2023-07-16T04:07:29;17.20;99.90
3713;DHT22;1872;51.406;6.856;2023-07-16T04:09:55;17.20;99.90
3713;DHT22;1872;51.406;6.856;2023-07-16T04:12:21;17.20;99.90
3713;DHT22;1872;51.406;6.856;2023-07-16T04:14:47;17.20;99.90
3713;DHT22;1872;51.406;6.856;2023-07-16T04:17:12;17.20;99.90
3713;DHT22;1872;51.406;6.856;2023-07-16T04:19:38;17.10;99.90
3713;DHT22;1872;51.406;6.856;2023-07-16T04:22:04;17.10;99.90
3713;DHT22;1872;51.406;6.856;2023-07-16T04:24:30;17.20;99.90
3713;DHT22;1872;51.406;6.856;2023-07-16T04:26:57;17.10;99.90
3713;DHT22;1872;51.406;6.856;2023-07-16T04:29:22;17.10;99.90
3713;DHT22;1872;51.406;6.856;2023-07-16T04:31:48;17.10;99.90
3713;DHT22;1872;51.406;6.856;2023-07-16T04:34:14;17.10;99.90
3713;DHT22;1872;51.406;6.856;2023-07-16T04:36:41;17.10;99.90
3713;DHT22;1872;51.406;6.856;2023-07-16T04:39:06;17.10;99.90
3713;DHT22;1872;51.406;6.856;2023-07-16T04:41:32;17.00;99.90
3713;DHT22;1872;51.406;6.856;2023-07-16T04:43:58;17.00;99.90
3713;DHT22;1872;51.406;6.856;2023-07-16T04:46:23;17.00;99.90
3713;DHT22;1872;51.406;6.856;2023-07-16T04:48:49;17.00;99.90
3713;DHT22;1872;51.406;6.856;2023-07-16T04:51:14;17.00;99.90
3713;DHT22;1872;51.406;6.856;2023-07-16T04:53:40;17.00;99.90
3713;DHT22;1872;51.406;6.856;2023-07-16T04:56:11;17.00;99.90
3713;DHT22;1872;51.406;6.856;2023-07-16T04:58:38;17.00;99.90
3713;DHT22;1872;51.406;6.856;2023-07-16T05:01:03;17.00;99.90
3713;DHT22;1872;51.406;6.856;2023-07-16T05:03:29;17.10;99.90
3713;DHT22;1872;51.406;6.856;2023-07-16T05:05:54;17.10;99.90
3713;DHT22;1872;51.406;6.856;2023-07-16T05:08:20;17.00;99.90
3713;DHT22;1872;51.406;6.856;2023-07-16T05:10:46;17.10;99.90
3713;DHT22;1872;51.406;6.856;2023-07-16T05:13:11;17.10;99.90
3713;DHT22;1872;51.406;6.856;2023-07-16T05:15:38;17.10;99.90
3713;DHT22;1872;51.406;6.856;2023-07-16T05:18:03;17.10;99.90
3713;DHT22;1872;51.406;6.856;2023-07-16T05:20:29;17.10;99.90
3713;DHT22;1872;51.406;6.856;2023-07-16T05:22:55;17.20;99.90
3713;DHT22;1872;51.406;6.856;2023-07-16T05:25:20;17.20;99.90
3713;DHT22;1872;51.406;6.856;2023-07-16T05:27:46;17.20;99.90
3713;DHT22;1872;51.406;6.856;2023-07-16T05:30:12;17.30;99.90
3713;DHT22;1872;51.406;6.856;2023-07-16T05:32:37;17.30;99.90
3713;DHT22;1872;51.406;6.856;2023-07-16T05:35:04;17.30;99.90
3713;DHT22;1872;51.406;6.856;2023-07-16T05:37:29;17.30;99.90
3713;DHT22;1872;51.406;6.856;2023-07-16T05:39:55;17.40;99.90
3713;DHT22;1872;51.406;6.856;2023-07-16T05:42:21;17.40;99.90
3713;DHT22;1872;51.406;6.856;2023-07-16T05:44:49;17.50;99.90
3713;DHT22;1872;51.406;6.856;2023-07-16T05:47:15;17.50;99.90
3713;DHT22;1872;51.406;6.856;2023-07-16T05:49:41;17.50;99.90
3713;DHT22;1872;51.406;6.856;2023-07-16T05:52:07;17.60;99.90
3713;DHT22;1872;51.406;6.856;2023-07-16T05:54:33;17.60;99.90
3713;DHT22;1872;51.406;6.856;2023-07-16T05:56:59;17.70;99.90
3713;DHT22;1872;51.406;6.856;2023-07-16T05:59:25;17.80;99.90
3713;DHT22;1872;51.406;6.856;2023-07-16T06:01:51;17.80;99.90
3713;DHT22;1872;51.406;6.856;2023-07-16T06:04:17;17.90;99.90
3713;DHT22;1872;51.406;6.856;2023-07-16T06:06:43;18.00;99.90
3713;DHT22;1872;51.406;6.856;2023-07-16T06:09:08;18.00;99.90
3713;DHT22;1872;51.406;6.856;2023-07-16T06:11:34;18.10;99.90
3713;DHT22;1872;51.406;6.856;2023-07-16T06:14:00;18.20;99.90
3713;DHT22;1872;51.406;6.856;2023-07-16T06:16:25;18.30;99.90
3713;DHT22;1872;51.406;6.856;2023-07-16T06:18:51;18.30;99.90
3713;DHT22;1872;51.406;6.856;2023-07-16T06:21:16;18.40;99.90
3713;DHT22;1872;51.406;6.856;2023-07-16T06:23:43;18.50;99.90
3713;DHT22;1872;51.406;6.856;2023-07-16T06:26:08;18.60;99.90
3713;DHT22;1872;51.406;6.856;2023-07-16T06:28:34;18.70;99.90
3713;DHT22;1872;51.406;6.856;2023-07-16T06:30:59;18.90;99.90
3713;DHT22;1872;51.406;6.856;2023-07-16T06:33:25;19.10;99.90
3713;DHT22;1872;51.406;6.856;2023-07-16T06:35:52;19.30;99.90
3713;DHT22;1872;51.406;6.856;2023-07-16T06:38:18;19.40;99.90
3713;DHT22;1872;51.406;6.856;2023-07-16T06:40:47;19.50;99.90
3713;DHT22;1872;51.406;6.856;2023-07-16T06:43:16;19.60;99.90
3713;DHT22;1872;51.406;6.856;2023-07-16T06:45:42;19.60;99.90
3713;DHT22;1872;51.406;6.856;2023-07-16T06:48:08;19.70;99.90
3713;DHT22;1872;51.406;6.856;2023-07-16T06:50:34;19.80;99.90
3713;DHT22;1872;51.406;6.856;2023-07-16T06:53:00;19.90;99.90
3713;DHT22;1872;51.406;6.856;2023-07-16T06:55:25;19.90;99.90
3713;DHT22;1872;51.406;6.856;2023-07-16T06:57:51;19.90;99.90
3713;DHT22;1872;51.406;6.856;2023-07-16T07:00:16;20.00;99.90
3713;DHT22;1872;51.406;6.856;2023-07-16T07:02:42;19.90;99.90
3713;DHT22;1872;51.406;6.856;2023-07-16T07:05:08;20.00;99.90
3713;DHT22;1872;51.406;6.856;2023-07-16T07:07:34;20.00;99.90
3713;DHT22;1872;51.406;6.856;2023-07-16T07:09:59;20.00;99.90
3713;DHT22;1872;51.406;6.856;2023-07-16T07:12:25;20.10;99.90
3713;DHT22;1872;51.406;6.856;2023-07-16T07:14:51;20.20;99.90
3713;DHT22;1872;51.406;6.856;2023-07-16T07:17:16;20.40;99.90
3713;DHT22;1872;51.406;6.856;2023-07-16T07:19:43;20.60;99.90
3713;DHT22;1872;51.406;6.856;2023-07-16T07:22:08;20.80;99.90
3713;DHT22;1872;51.406;6.856;2023-07-16T07:24:34;21.10;99.90
3713;DHT22;1872;51.406;6.856;2023-07-16T07:27:00;21.50;99.90
3713;DHT22;1872;51.406;6.856;2023-07-16T07:29:25;22.00;99.90
3713;DHT22;1872;51.406;6.856;2023-07-16T07:31:52;22.40;99.90
3713;DHT22;1872;51.406;6.856;2023-07-16T07:34:18;22.80;99.90
3713;DHT22;1872;51.406;6.856;2023-07-16T07:36:44;23.10;99.90
3713;DHT22;1872;51.406;6.856;2023-07-16T07:39:09;23.50;99.90
3713;DHT22;1872;51.406;6.856;2023-07-16T07:41:35;23.90;99.90
3713;DHT22;1872;51.406;6.856;2023-07-16T07:44:01;24.10;99.90
3713;DHT22;1872;51.406;6.856;2023-07-16T07:46:26;24.20;99.90
3713;DHT22;1872;51.406;6.856;2023-07-16T07:48:52;24.50;99.90
3713;DHT22;1872;51.406;6.856;2023-07-16T07:51:17;24.80;99.90
3713;DHT22;1872;51.406;6.856;2023-07-16T07:53:43;25.00;99.90
3713;DHT22;1872;51.406;6.856;2023-07-16T07:56:09;25.30;99.90
3713;DHT22;1872;51.406;6.856;2023-07-16T07:58:34;25.40;99.90
3713;DHT22;1872;51.406;6.856;2023-07-16T08:01:05;25.50;99.90
3713;DHT22;1872;51.406;6.856;2023-07-16T08:03:31;25.70;99.90
3713;DHT22;1872;51.406;6.856;2023-07-16T08:05:56;25.70;99.90
3713;DHT22;1872;51.406;6.856;2023-07-16T08:08:22;25.90;99.90
3713;DHT22;1872;51.406;6.856;2023-07-16T08:10:48;26.00;99.90
3713;DHT22;1872;51.406;6.856;2023-07-16T08:13:13;26.00;99.90
3713;DHT22;1872;51.406;6.856;2023-07-16T08:15:39;26.00;99.90
3713;DHT22;1872;51.406;6.856;2023-07-16T08:18:04;26.10;99.90
3713;DHT22;1872;51.406;6.856;2023-07-16T08:20:30;26.20;99.90
3713;DHT22;1872;51.406;6.856;2023-07-16T08:22:56;26.20;99.90
3713;DHT22;1872;51.406;6.856;2023-07-16T08:25:22;26.50;99.90
3713;DHT22;1872;51.406;6.856;2023-07-16T08:27:47;26.70;99.90
3713;DHT22;1872;51.406;6.856;2023-07-16T08:30:13;27.00;99.90
3713;DHT22;1872;51.406;6.856;2023-07-16T08:32:39;27.20;99.90
3713;DHT22;1872;51.406;6.856;2023-07-16T08:35:05;27.30;99.30
3713;DHT22;1872;51.406;6.856;2023-07-16T08:37:31;27.30;98.70
3713;DHT22;1872;51.406;6.856;2023-07-16T08:39:57;27.20;97.60
3713;DHT22;1872;51.406;6.856;2023-07-16T08:42:23;26.90;96.50
3713;DHT22;1872;51.406;6.856;2023-07-16T08:44:49;26.50;95.50
3713;DHT22;1872;51.406;6.856;2023-07-16T08:47:16;26.20;95.60
3713;DHT22;1872;51.406;6.856;2023-07-16T08:49:56;25.80;95.50
3713;DHT22;1872;51.406;6.856;2023-07-16T08:52:22;25.60;95.00
3713;DHT22;1872;51.406;6.856;2023-07-16T08:54:48;25.40;95.50
3713;DHT22;1872;51.406;6.856;2023-07-16T08:57:14;25.50;96.40
3713;DHT22;1872;51.406;6.856;2023-07-16T08:59:40;25.80;96.60
3713;DHT22;1872;51.406;6.856;2023-07-16T09:02:06;25.90;96.40
3713;DHT22;1872;51.406;6.856;2023-07-16T09:04:32;26.20;96.50
3713;DHT22;1872;51.406;6.856;2023-07-16T09:06:58;26.50;96.00
3713;DHT22;1872;51.406;6.856;2023-07-16T09:09:24;26.50;95.50
3713;DHT22;1872;51.406;6.856;2023-07-16T09:11:50;26.70;95.50
3713;DHT22;1872;51.406;6.856;2023-07-16T09:14:20;27.00;95.30
3713;DHT22;1872;51.406;6.856;2023-07-16T09:16:53;27.20;94.10
3713;DHT22;1872;51.406;6.856;2023-07-16T09:19:21;27.40;93.50
3713;DHT22;1872;51.406;6.856;2023-07-16T09:21:48;27.20;92.70
3713;DHT22;1872;51.406;6.856;2023-07-16T09:24:14;27.00;92.20
3713;DHT22;1872;51.406;6.856;2023-07-16T09:26:48;26.90;92.20
3713;DHT22;1872;51.406;6.856;2023-07-16T09:29:14;26.70;91.60
3713;DHT22;1872;51.406;6.856;2023-07-16T09:32:00;26.40;91.60
3713;DHT22;1872;51.406;6.856;2023-07-16T09:34:29;26.30;91.60
3713;DHT22;1872;51.406;6.856;2023-07-16T09:36:59;26.20;91.50
3713;DHT22;1872;51.406;6.856;2023-07-16T09:39:26;26.10;91.50
3713;DHT22;1872;51.406;6.856;2023-07-16T09:41:52;26.00;91.40
3713;DHT22;1872;51.406;6.856;2023-07-16T09:44:19;26.00;91.30
3713;DHT22;1872;51.406;6.856;2023-07-16T09:46:46;25.90;91.20
3713;DHT22;1872;51.406;6.856;2023-07-16T09:49:13;25.90;91.40
3713;DHT22;1872;51.406;6.856;2023-07-16T09:51:39;25.90;91.00
3713;DHT22;1872;51.406;6.856;2023-07-16T09:54:06;25.70;90.80
3713;DHT22;1872;51.406;6.856;2023-07-16T09:56:53;25.50;90.90
3713;DHT22;1872;51.406;6.856;2023-07-16T09:59:24;25.40;90.90
3713;DHT22;1872;51.406;6.856;2023-07-16T10:01:50;25.20;90.80
3713;DHT22;1872;51.406;6.856;2023-07-16T10:04:19;25.10;90.90
3713;DHT22;1872;51.406;6.856;2023-07-16T10:06:55;25.00;91.10
3713;DHT22;1872;51.406;6.856;2023-07-16T10:12:14;24.90;91.30
3713;DHT22;1872;51.406;6.856;2023-07-16T10:14:44;24.90;91.30
3713;DHT22;1872;51.406;6.856;2023-07-16T10:17:19;24.80;91.20
3713;DHT22;1872;51.406;6.856;2023-07-16T10:20:02;24.90;91.10
3713;DHT22;1872;51.406;6.856;2023-07-16T10:22:38;25.00;91.20
3713;DHT22;1872;51.406;6.856;2023-07-16T10:27:44;24.90;91.00
3713;DHT22;1872;51.406;6.856;2023-07-16T10:30:10;24.80;90.90
3713;DHT22;1872;51.406;6.856;2023-07-16T10:32:36;24.70;91.20
3713;DHT22;1872;51.406;6.856;2023-07-16T10:35:04;24.70;91.40
3713;DHT22;1872;51.406;6.856;2023-07-16T10:37:30;24.80;91.50
3713;DHT22;1872;51.406;6.856;2023-07-16T10:39:58;24.90;91.40
3713;DHT22;1872;51.406;6.856;2023-07-16T10:42:26;25.00;91.20
3713;DHT22;1872;51.406;6.856;2023-07-16T10:44:53;25.00;91.10
3713;DHT22;1872;51.406;6.856;2023-07-16T10:47:23;25.00;91.20
3713;DHT22;1872;51.406;6.856;2023-07-16T10:49:50;25.00;91.30
3713;DHT22;1872;51.406;6.856;2023-07-16T10:52:18;24.90;91.10
3713;DHT22;1872;51.406;6.856;2023-07-16T10:54:43;24.80;91.10
3713;DHT22;1872;51.406;6.856;2023-07-16T10:57:11;24.80;91.20
3713;DHT22;1872;51.406;6.856;2023-07-16T10:59:38;24.80;91.20
3713;DHT22;1872;51.406;6.856;2023-07-16T11:02:10;24.80;91.00
3713;DHT22;1872;51.406;6.856;2023-07-16T11:04:36;24.80;90.90
3713;DHT22;1872;51.406;6.856;2023-07-16T11:09:32;24.50;90.60
3713;DHT22;1872;51.406;6.856;2023-07-16T11:12:09;24.40;90.60
3713;DHT22;1872;51.406;6.856;2023-07-16T11:14:39;24.40;90.90
3713;DHT22;1872;51.406;6.856;2023-07-16T11:17:06;24.40;91.00
3713;DHT22;1872;51.406;6.856;2023-07-16T11:19:33;24.40;91.10
3713;DHT22;1872;51.406;6.856;2023-07-16T11:22:00;24.40;91.20
3713;DHT22;1872;51.406;6.856;2023-07-16T11:24:27;24.40;91.40
3713;DHT22;1872;51.406;6.856;2023-07-16T11:26:54;24.40;91.30
3713;DHT22;1872;51.406;6.856;2023-07-16T11:29:23;24.40;91.00
3713;DHT22;1872;51.406;6.856;2023-07-16T11:31:51;24.40;91.00
3713;DHT22;1872;51.406;6.856;2023-07-16T11:34:19;24.40;91.00
3713;DHT22;1872;51.406;6.856;2023-07-16T11:36:45;24.30;91.00
3713;DHT22;1872;51.406;6.856;2023-07-16T11:39:11;24.20;91.20
3713;DHT22;1872;51.406;6.856;2023-07-16T11:41:38;24.20;91.20
3713;DHT22;1872;51.406;6.856;2023-07-16T11:44:03;24.10;91.30
3713;DHT22;1872;51.406;6.856;2023-07-16T11:46:33;24.10;91.40
3713;DHT22;1872;51.406;6.856;2023-07-16T11:49:02;24.10;91.40
3713;DHT22;1872;51.406;6.856;2023-07-16T11:51:29;24.00;91.20
3713;DHT22;1872;51.406;6.856;2023-07-16T11:53:56;24.00;91.30
3713;DHT22;1872;51.406;6.856;2023-07-16T11:56:22;23.90;91.30
3713;DHT22;1872;51.406;6.856;2023-07-16T11:58:49;23.90;91.10
3713;DHT22;1872;51.406;6.856;2023-07-16T12:01:15;23.90;91.20
3713;DHT22;1872;51.406;6.856;2023-07-16T12:03:41;23.90;91.30
3713;DHT22;1872;51.406;6.856;2023-07-16T12:06:07;23.90;91.40
3713;DHT22;1872;51.406;6.856;2023-07-16T12:08:33;23.90;91.30
3713;DHT22;1872;51.406;6.856;2023-07-16T12:10:59;23.90;91.10
3713;DHT22;1872;51.406;6.856;2023-07-16T12:13:24;23.90;91.10
3713;DHT22;1872;51.406;6.856;2023-07-16T12:15:50;23.90;91.10
3713;DHT22;1872;51.406;6.856;2023-07-16T12:18:15;23.90;91.10
3713;DHT22;1872;51.406;6.856;2023-07-16T12:20:41;23.80;91.00
3713;DHT22;1872;51.406;6.856;2023-07-16T12:23:07;23.90;91.30
3713;DHT22;1872;51.406;6.856;2023-07-16T12:25:33;23.80;91.00
3713;DHT22;1872;51.406;6.856;2023-07-16T12:27:59;23.80;90.90
3713;DHT22;1872;51.406;6.856;2023-07-16T12:30:26;23.70;90.90
3713;DHT22;1872;51.406;6.856;2023-07-16T12:32:51;23.70;91.00
3713;DHT22;1872;51.406;6.856;2023-07-16T12:35:17;23.80;91.20
3713;DHT22;1872;51.406;6.856;2023-07-16T12:37:42;23.80;91.20
3713;DHT22;1872;51.406;6.856;2023-07-16T12:40:08;23.90;91.30
3713;DHT22;1872;51.406;6.856;2023-07-16T12:42:34;23.90;91.20
3713;DHT22;1872;51.406;6.856;2023-07-16T12:45:01;23.90;90.90
3713;DHT22;1872;51.406;6.856;2023-07-16T12:47:26;23.90;90.80
3713;DHT22;1872;51.406;6.856;2023-07-16T12:49:52;23.90;90.80
3713;DHT22;1872;51.406;6.856;2023-07-16T12:52:18;23.80;90.80
3713;DHT22;1872;51.406;6.856;2023-07-16T12:54:43;23.80;90.90
3713;DHT22;1872;51.406;6.856;2023-07-16T12:57:09;23.80;90.80
3713;DHT22;1872;51.406;6.856;2023-07-16T12:59:35;23.80;90.80
3713;DHT22;1872;51.406;6.856;2023-07-16T13:02:00;23.90;90.90
3713;DHT22;1872;51.406;6.856;2023-07-16T13:04:26;24.00;91.20
3713;DHT22;1872;51.406;6.856;2023-07-16T13:06:52;24.10;91.30
3713;DHT22;1872;51.406;6.856;2023-07-16T13:09:17;24.20;91.20
3713;DHT22;1872;51.406;6.856;2023-07-16T13:11:43;24.30;91.30
3713;DHT22;1872;51.406;6.856;2023-07-16T13:14:09;24.40;91.30
3713;DHT22;1872;51.406;6.856;2023-07-16T13:16:35;24.60;91.40
3713;DHT22;1872;51.406;6.856;2023-07-16T13:19:00;24.60;91.30
3713;DHT22;1872;51.406;6.856;2023-07-16T13:21:26;24.70;91.20
3713;DHT22;1872;51.406;6.856;2023-07-16T13:23:52;24.70;91.00
3713;DHT22;1872;51.406;6.856;2023-07-16T13:26:17;24.70;90.90
3713;DHT22;1872;51.406;6.856;2023-07-16T13:28:43;24.70;90.90
3713;DHT22;1872;51.406;6.856;2023-07-16T13:31:08;24.70;90.80
3713;DHT22;1872;51.406;6.856;2023-07-16T13:33:34;24.70;90.60
3713;DHT22;1872;51.406;6.856;2023-07-16T13:36:01;24.70;90.40
3713;DHT22;1872;51.406;6.856;2023-07-16T13:38:30;24.60;90.30
3713;DHT22;1872;51.406;6.856;2023-07-16T13:40:56;24.60;90.30
3713;DHT22;1872;51.406;6.856;2023-07-16T13:43:21;24.50;90.40
3713;DHT22;1872;51.406;6.856;2023-07-16T13:45:47;24.50;90.30
3713;DHT22;1872;51.406;6.856;2023-07-16T13:48:13;24.40;90.30
3713;DHT22;1872;51.406;6.856;2023-07-16T13:50:38;24.40;90.50
3713;DHT22;1872;51.406;6.856;2023-07-16T13:53:04;24.40;90.60
3713;DHT22;1872;51.406;6.856;2023-07-16T13:55:29;24.40;90.60
3713;DHT22;1872;51.406;6.856;2023-07-16T13:57:55;24.40;90.50
3713;DHT22;1872;51.406;6.856;2023-07-16T14:00:21;24.50;90.60
3713;DHT22;1872;51.406;6.856;2023-07-16T14:02:47;24.50;90.60
3713;DHT22;1872;51.406;6.856;2023-07-16T14:05:13;24.60;90.40
3713;DHT22;1872;51.406;6.856;2023-07-16T14:07:38;24.60;90.20
3713;DHT22;1872;51.406;6.856;2023-07-16T14:10:04;24.60;90.20
3713;DHT22;1872;51.406;6.856;2023-07-16T14:12:30;24.60;90.30
3713;DHT22;1872;51.406;6.856;2023-07-16T14:14:56;24.60;90.40
3713;DHT22;1872;51.406;6.856;2023-07-16T14:17:21;24.60;90.20
3713;DHT22;1872;51.406;6.856;2023-07-16T14:19:48;24.60;90.10
3713;DHT22;1872;51.406;6.856;2023-07-16T14:22:14;24.60;90.00
3713;DHT22;1872;51.406;6.856;2023-07-16T14:24:41;24.60;89.70
3713;DHT22;1872;51.406;6.856;2023-07-16T14:27:07;24.50;89.20
3713;DHT22;1872;51.406;6.856;2023-07-16T14:29:38;24.50;88.80
3713;DHT22;1872;51.406;6.856;2023-07-16T14:32:04;24.50;89.00
3713;DHT22;1872;51.406;6.856;2023-07-16T14:34:29;24.40;89.50
3713;DHT22;1872;51.406;6.856;2023-07-16T14:36:55;24.50;89.20
3713;DHT22;1872;51.406;6.856;2023-07-16T14:39:21;24.50;88.90
3713;DHT22;1872;51.406;6.856;2023-07-16T14:41:46;24.50;88.70
3713;DHT22;1872;51.406;6.856;2023-07-16T14:44:12;24.60;88.80
3713;DHT22;1872;51.406;6.856;2023-07-16T14:46:38;24.60;89.50
3713;DHT22;1872;51.406;6.856;2023-07-16T14:49:03;24.60;88.60
3713;DHT22;1872;51.406;6.856;2023-07-16T14:51:29;24.50;88.30
3713;DHT22;1872;51.406;6.856;2023-07-16T14:53:56;24.50;88.00
3713;DHT22;1872;51.406;6.856;2023-07-16T14:56:22;24.50;87.60
3713;DHT22;1872;51.406;6.856;2023-07-16T14:58:47;24.60;87.50
3713;DHT22;1872;51.406;6.856;2023-07-16T15:01:13;24.50;87.20
3713;DHT22;1872;51.406;6.856;2023-07-16T15:03:39;24.50;86.90
3713;DHT22;1872;51.406;6.856;2023-07-16T15:06:06;24.40;86.80
3713;DHT22;1872;51.406;6.856;2023-07-16T15:08:32;24.40;86.90
3713;DHT22;1872;51.406;6.856;2023-07-16T15:10:58;24.40;86.80
3713;DHT22;1872;51.406;6.856;2023-07-16T15:13:24;24.40;86.30
3713;DHT22;1872;51.406;6.856;2023-07-16T15:15:51;24.30;86.40
3713;DHT22;1872;51.406;6.856;2023-07-16T15:18:18;24.30;86.40
3713;DHT22;1872;51.406;6.856;2023-07-16T15:20:45;24.20;86.50
3713;DHT22;1872;51.406;6.856;2023-07-16T15:23:11;24.20;86.90
3713;DHT22;1872;51.406;6.856;2023-07-16T15:25:37;24.20;87.40
3713;DHT22;1872;51.406;6.856;2023-07-16T15:28:03;24.30;87.40
3713;DHT22;1872;51.406;6.856;2023-07-16T15:30:28;24.30;87.30
3713;DHT22;1872;51.406;6.856;2023-07-16T15:32:54;24.30;87.50
3713;DHT22;1872;51.406;6.856;2023-07-16T15:35:19;24.30;87.60
3713;DHT22;1872;51.406;6.856;2023-07-16T15:37:45;24.30;87.30
3713;DHT22;1872;51.406;6.856;2023-07-16T15:40:15;24.30;87.00
3713;DHT22;1872;51.406;6.856;2023-07-16T15:42:41;24.40;87.40
3713;DHT22;1872;51.406;6.856;2023-07-16T15:45:11;24.40;87.70
3713;DHT22;1872;51.406;6.856;2023-07-16T15:47:38;24.40;87.70
3713;DHT22;1872;51.406;6.856;2023-07-16T15:50:04;24.30;87.60
3713;DHT22;1872;51.406;6.856;2023-07-16T15:52:30;24.30;87.20
3713;DHT22;1872;51.406;6.856;2023-07-16T15:54:57;24.30;86.80
3713;DHT22;1872;51.406;6.856;2023-07-16T15:57:22;24.30;86.80
3713;DHT22;1872;51.406;6.856;2023-07-16T15:59:48;24.30;86.80
3713;DHT22;1872;51.406;6.856;2023-07-16T16:02:13;24.30;86.90
3713;DHT22;1872;51.406;6.856;2023-07-16T16:04:39;24.30;87.40
3713;DHT22;1872;51.406;6.856;2023-07-16T16:07:05;24.20;87.60
3713;DHT22;1872;51.406;6.856;2023-07-16T16:09:30;24.20;87.80
3713;DHT22;1872;51.406;6.856;2023-07-16T16:11:56;24.20;87.70
3713;DHT22;1872;51.406;6.856;2023-07-16T16:14:22;24.10;87.40